sensor_id;sensor_type;location;lat;lon;timestamp;P1;durP1;ratioP1;P2;durP2;ratioP2
4274;SDS011;2151;50.988;11.068;2023-09-12T00:00:02;119.70;;;9.00;;
4274;SDS011;2151;50.988;11.068;2023-09-12T00:02:31;119.00;;;8.00;;
4274;SDS011;2151;50.988;11.068;2023-09-12T00:04:58;123.03;;;9.97;;
4274;SDS011;2151;50.988;11.068;2023-09-12T00:07:24;128.60;;;9.30;;
4274;SDS011;2151;50.988;11.068;2023-09-12T00:09:51;125.23;;;9.70;;
4274;SDS011;2151;50.988;11.068;2023-09-12T00:12:17;124.37;;;9.87;;
4274;SDS011;2151;50.988;11.068;2023-09-12T00:14:44;120.37;;;8.97;;
4274;SDS011;2151;50.988;11.068;2023-09-12T00:17:10;117.23;;;8.10;;
4274;SDS011;2151;50.988;11.068;2023-09-12T00:19:37;131.40;;;10.10;;
4274;SDS011;2151;50.988;11.068;2023-09-12T00:22:03;126.13;;;8.63;;
4274;SDS011;2151;50.988;11.068;2023-09-12T00:24:30;131.03;;;9.20;;
4274;SDS011;2151;50.988;11.068;2023-09-12T00:26:56;120.10;;;9.20;;
4274;SDS011;2151;50.988;11.068;2023-09-12T00:29:23;124.73;;;9.53;;
4274;SDS011;2151;50.988;11.068;2023-09-12T00:31:49;115.17;;;8.70;;
4274;SDS011;2151;50.988;11.068;2023-09-12T00:34:16;125.60;;;10.10;;
4274;SDS011;2151;50.988;11.068;2023-09-12T00:36:43;122.90;;;9.20;;
4274;SDS011;2151;50.988;11.068;2023-09-12T00:39:10;118.90;;;8.53;;
4274;SDS011;2151;50.988;11.068;2023-09-12T00:41:36;120.20;;;9.73;;
4274;SDS011;2151;50.988;11.068;2023-09-12T00:44:03;122.97;;;9.30;;
4274;SDS011;2151;50.988;11.068;2023-09-12T00:46:29;119.23;;;9.53;;
4274;SDS011;2151;50.988;11.068;2023-09-12T00:48:56;123.50;;;9.73;;
4274;SDS011;2151;50.988;11.068;2023-09-12T00:51:23;122.27;;;9.37;;
4274;SDS011;2151;50.988;11.068;2023-09-12T00:53:50;124.20;;;9.17;;
4274;SDS011;2151;50.988;11.068;2023-09-12T00:56:17;129.40;;;10.17;;
4274;SDS011;2151;50.988;11.068;2023-09-12T00:58:43;125.27;;;9.33;;
4274;SDS011;2151;50.988;11.068;2023-09-12T01:01:12;124.10;;;9.68;;
4274;SDS011;2151;50.988;11.068;2023-09-12T01:03:38;124.50;;;9.90;;
4274;SDS011;2151;50.988;11.068;2023-09-12T01:06:05;128.37;;;10.70;;
4274;SDS011;2151;50.988;11.068;2023-09-12T01:08:34;129.10;;;10.70;;
4274;SDS011;2151;50.988;11.068;2023-09-12T01:11:00;125.53;;;9.60;;
4274;SDS011;2151;50.988;11.068;2023-09-12T01:13:27;135.77;;;11.50;;
4274;SDS011;2151;50.988;11.068;2023-09-12T01:15:54;126.30;;;9.37;;
4274;SDS011;2151;50.988;11.068;2023-09-12T01:18:21;124.30;;;10.87;;
4274;SDS011;2151;50.988;11.068;2023-09-12T01:23:37;127.10;;;10.67;;
4274;SDS011;2151;50.988;11.068;2023-09-12T01:26:17;123.20;;;10.83;;
4274;SDS011;2151;50.988;11.068;2023-09-12T01:28:45;124.83;;;10.37;;
4274;SDS011;2151;50.988;11.068;2023-09-12T01:31:12;121.63;;;10.37;;
4274;SDS011;2151;50.988;11.068;2023-09-12T01:33:39;129.50;;;10.23;;
4274;SDS011;2151;50.988;11.068;2023-09-12T01:36:06;123.07;;;11.07;;
4274;SDS011;2151;50.988;11.068;2023-09-12T01:38:32;123.70;;;10.60;;
4274;SDS011;2151;50.988;11.068;2023-09-12T01:40:59;125.80;;;10.90;;
4274;SDS011;2151;50.988;11.068;2023-09-12T01:43:25;130.27;;;12.67;;
4274;SDS011;2151;50.988;11.068;2023-09-12T01:45:53;126.17;;;10.97;;
4274;SDS011;2151;50.988;11.068;2023-09-12T01:48:21;125.97;;;11.50;;
4274;SDS011;2151;50.988;11.068;2023-09-12T01:50:48;133.57;;;12.07;;
4274;SDS011;2151;50.988;11.068;2023-09-12T01:53:15;130.13;;;11.67;;
4274;SDS011;2151;50.988;11.068;2023-09-12T01:55:42;127.63;;;10.73;;
4274;SDS011;2151;50.988;11.068;2023-09-12T01:58:10;126.67;;;10.57;;
4274;SDS011;2151;50.988;11.068;2023-09-12T02:00:37;122.93;;;10.77;;
4274;SDS011;2151;50.988;11.068;2023-09-12T02:03:04;125.43;;;10.57;;
4274;SDS011;2151;50.988;11.068;2023-09-12T02:05:30;127.70;;;11.53;;
4274;SDS011;2151;50.988;11.068;2023-09-12T02:07:57;132.80;;;11.07;;
4274;SDS011;2151;50.988;11.068;2023-09-12T02:10:26;128.80;;;10.13;;
4274;SDS011;2151;50.988;11.068;2023-09-12T02:12:53;127.63;;;9.67;;
4274;SDS011;2151;50.988;11.068;2023-09-12T02:15:19;123.47;;;10.87;;
4274;SDS011;2151;50.988;11.068;2023-09-12T02:17:46;125.80;;;10.53;;
4274;SDS011;2151;50.988;11.068;2023-09-12T02:20:13;121.70;;;10.73;;
4274;SDS011;2151;50.988;11.068;2023-09-12T02:22:39;127.10;;;11.57;;
4274;SDS011;2151;50.988;11.068;2023-09-12T02:25:05;131.37;;;11.03;;
4274;SDS011;2151;50.988;11.068;2023-09-12T02:27:32;134.30;;;12.60;;
4274;SDS011;2151;50.988;11.068;2023-09-12T02:29:59;133.60;;;11.13;;
4274;SDS011;2151;50.988;11.068;2023-09-12T02:32:25;130.53;;;11.57;;
4274;SDS011;2151;50.988;11.068;2023-09-12T02:34:52;135.20;;;11.30;;
4274;SDS011;2151;50.988;11.068;2023-09-12T02:37:19;131.70;;;11.20;;
4274;SDS011;2151;50.988;11.068;2023-09-12T02:39:46;127.63;;;11.80;;
4274;SDS011;2151;50.988;11.068;2023-09-12T02:42:12;128.13;;;10.70;;
4274;SDS011;2151;50.988;11.068;2023-09-12T02:44:39;141.47;;;11.80;;
4274;SDS011;2151;50.988;11.068;2023-09-12T02:47:06;126.27;;;11.50;;
4274;SDS011;2151;50.988;11.068;2023-09-12T02:49:32;126.37;;;11.53;;
4274;SDS011;2151;50.988;11.068;2023-09-12T02:51:59;131.40;;;11.50;;
4274;SDS011;2151;50.988;11.068;2023-09-12T02:54:25;129.63;;;11.27;;
4274;SDS011;2151;50.988;11.068;2023-09-12T02:56:52;126.73;;;10.83;;
4274;SDS011;2151;50.988;11.068;2023-09-12T02:59:18;124.87;;;10.60;;
4274;SDS011;2151;50.988;11.068;2023-09-12T03:01:45;128.47;;;10.67;;
4274;SDS011;2151;50.988;11.068;2023-09-12T03:04:12;129.10;;;11.10;;
4274;SDS011;2151;50.988;11.068;2023-09-12T03:06:38;129.00;;;11.47;;
4274;SDS011;2151;50.988;11.068;2023-09-12T03:09:05;129.73;;;11.93;;
4274;SDS011;2151;50.988;11.068;2023-09-12T03:11:32;130.20;;;12.30;;
4274;SDS011;2151;50.988;11.068;2023-09-12T03:13:59;136.67;;;11.70;;
4274;SDS011;2151;50.988;11.068;2023-09-12T03:16:25;124.10;;;11.30;;
4274;SDS011;2151;50.988;11.068;2023-09-12T03:18:52;127.50;;;12.30;;
4274;SDS011;2151;50.988;11.068;2023-09-12T03:21:18;126.37;;;12.57;;
4274;SDS011;2151;50.988;11.068;2023-09-12T03:23:45;129.33;;;12.07;;
4274;SDS011;2151;50.988;11.068;2023-09-12T03:26:11;133.70;;;11.63;;
4274;SDS011;2151;50.988;11.068;2023-09-12T03:28:38;127.30;;;12.20;;
4274;SDS011;2151;50.988;11.068;2023-09-12T03:31:11;142.53;;;12.90;;
4274;SDS011;2151;50.988;11.068;2023-09-12T03:33:38;130.30;;;13.20;;
4274;SDS011;2151;50.988;11.068;2023-09-12T03:36:06;130.33;;;13.17;;
4274;SDS011;2151;50.988;11.068;2023-09-12T03:38:33;131.87;;;14.50;;
4274;SDS011;2151;50.988;11.068;2023-09-12T03:40:59;128.13;;;14.00;;
4274;SDS011;2151;50.988;11.068;2023-09-12T03:43:26;133.27;;;13.60;;
4274;SDS011;2151;50.988;11.068;2023-09-12T03:45:53;131.50;;;13.10;;
4274;SDS011;2151;50.988;11.068;2023-09-12T03:48:19;132.43;;;13.03;;
4274;SDS011;2151;50.988;11.068;2023-09-12T03:50:46;124.53;;;12.63;;
4274;SDS011;2151;50.988;11.068;2023-09-12T03:53:13;135.80;;;13.80;;
4274;SDS011;2151;50.988;11.068;2023-09-12T03:55:39;133.03;;;14.40;;
4274;SDS011;2151;50.988;11.068;2023-09-12T03:58:06;132.60;;;14.37;;
4274;SDS011;2151;50.988;11.068;2023-09-12T04:00:32;132.40;;;14.10;;
4274;SDS011;2151;50.988;11.068;2023-09-12T04:02:59;144.33;;;13.80;;
4274;SDS011;2151;50.988;11.068;2023-09-12T04:05:26;132.00;;;13.47;;
4274;SDS011;2151;50.988;11.068;2023-09-12T04:07:52;128.57;;;13.60;;
4274;SDS011;2151;50.988;11.068;2023-09-12T04:10:22;123.53;;;13.07;;
4274;SDS011;2151;50.988;11.068;2023-09-12T04:12:48;134.13;;;14.07;;
4274;SDS011;2151;50.988;11.068;2023-09-12T04:15:15;131.13;;;13.23;;
4274;SDS011;2151;50.988;11.068;2023-09-12T04:17:41;135.30;;;13.70;;
4274;SDS011;2151;50.988;11.068;2023-09-12T04:20:08;130.97;;;13.80;;
4274;SDS011;2151;50.988;11.068;2023-09-12T04:22:35;129.70;;;14.00;;
4274;SDS011;2151;50.988;11.068;2023-09-12T04:25:01;130.97;;;13.77;;
4274;SDS011;2151;50.988;11.068;2023-09-12T04:27:27;133.17;;;14.03;;
4274;SDS011;2151;50.988;11.068;2023-09-12T04:29:54;136.43;;;14.50;;
4274;SDS011;2151;50.988;11.068;2023-09-12T04:32:20;127.33;;;13.13;;
4274;SDS011;2151;50.988;11.068;2023-09-12T04:34:50;126.50;;;13.07;;
4274;SDS011;2151;50.988;11.068;2023-09-12T04:37:17;127.90;;;14.77;;
4274;SDS011;2151;50.988;11.068;2023-09-12T04:39:43;140.70;;;16.97;;
4274;SDS011;2151;50.988;11.068;2023-09-12T04:42:10;128.10;;;14.33;;
4274;SDS011;2151;50.988;11.068;2023-09-12T04:44:39;138.90;;;15.27;;
4274;SDS011;2151;50.988;11.068;2023-09-12T04:47:06;129.03;;;15.00;;
4274;SDS011;2151;50.988;11.068;2023-09-12T04:49:32;135.60;;;14.70;;
4274;SDS011;2151;50.988;11.068;2023-09-12T04:51:59;129.97;;;14.07;;
4274;SDS011;2151;50.988;11.068;2023-09-12T04:54:26;133.03;;;14.70;;
4274;SDS011;2151;50.988;11.068;2023-09-12T04:56:52;129.47;;;15.20;;
4274;SDS011;2151;50.988;11.068;2023-09-12T04:59:19;132.80;;;15.47;;
4274;SDS011;2151;50.988;11.068;2023-09-12T05:01:45;147.97;;;15.33;;
4274;SDS011;2151;50.988;11.068;2023-09-12T05:04:12;137.83;;;14.50;;
4274;SDS011;2151;50.988;11.068;2023-09-12T05:06:39;131.90;;;15.43;;
4274;SDS011;2151;50.988;11.068;2023-09-12T05:09:06;134.43;;;15.80;;
4274;SDS011;2151;50.988;11.068;2023-09-12T05:11:35;137.50;;;15.27;;
4274;SDS011;2151;50.988;11.068;2023-09-12T05:14:01;135.37;;;15.00;;
4274;SDS011;2151;50.988;11.068;2023-09-12T05:16:30;134.27;;;15.00;;
4274;SDS011;2151;50.988;11.068;2023-09-12T05:18:56;135.30;;;15.70;;
4274;SDS011;2151;50.988;11.068;2023-09-12T05:21:23;134.33;;;15.73;;
4274;SDS011;2151;50.988;11.068;2023-09-12T05:23:49;126.77;;;15.13;;
4274;SDS011;2151;50.988;11.068;2023-09-12T05:26:16;138.63;;;15.50;;
4274;SDS011;2151;50.988;11.068;2023-09-12T05:28:42;131.27;;;14.87;;
4274;SDS011;2151;50.988;11.068;2023-09-12T05:31:09;134.40;;;15.20;;
4274;SDS011;2151;50.988;11.068;2023-09-12T05:33:36;140.63;;;15.03;;
4274;SDS011;2151;50.988;11.068;2023-09-12T05:36:02;131.67;;;14.47;;
4274;SDS011;2151;50.988;11.068;2023-09-12T05:38:29;131.40;;;14.67;;
4274;SDS011;2151;50.988;11.068;2023-09-12T05:40:56;129.87;;;15.17;;
4274;SDS011;2151;50.988;11.068;2023-09-12T05:43:22;140.33;;;15.30;;
4274;SDS011;2151;50.988;11.068;2023-09-12T05:45:49;139.87;;;14.97;;
4274;SDS011;2151;50.988;11.068;2023-09-12T05:48:15;135.23;;;15.00;;
4274;SDS011;2151;50.988;11.068;2023-09-12T05:50:42;140.60;;;17.30;;
4274;SDS011;2151;50.988;11.068;2023-09-12T05:53:08;130.83;;;15.30;;
4274;SDS011;2151;50.988;11.068;2023-09-12T05:55:35;129.00;;;14.83;;
4274;SDS011;2151;50.988;11.068;2023-09-12T05:58:01;140.60;;;14.20;;
4274;SDS011;2151;50.988;11.068;2023-09-12T06:00:30;132.17;;;14.73;;
4274;SDS011;2151;50.988;11.068;2023-09-12T06:02:56;127.03;;;14.57;;
4274;SDS011;2151;50.988;11.068;2023-09-12T06:05:23;135.83;;;14.77;;
4274;SDS011;2151;50.988;11.068;2023-09-12T06:07:49;127.87;;;14.93;;
4274;SDS011;2151;50.988;11.068;2023-09-12T06:10:15;143.30;;;15.97;;
4274;SDS011;2151;50.988;11.068;2023-09-12T06:12:42;136.57;;;15.30;;
4274;SDS011;2151;50.988;11.068;2023-09-12T06:15:09;136.07;;;15.10;;
4274;SDS011;2151;50.988;11.068;2023-09-12T06:17:35;134.33;;;14.87;;
4274;SDS011;2151;50.988;11.068;2023-09-12T06:20:02;136.77;;;13.40;;
4274;SDS011;2151;50.988;11.068;2023-09-12T06:22:33;139.63;;;15.40;;
4274;SDS011;2151;50.988;11.068;2023-09-12T06:25:00;130.20;;;14.50;;
4274;SDS011;2151;50.988;11.068;2023-09-12T06:27:27;118.00;;;13.37;;
4274;SDS011;2151;50.988;11.068;2023-09-12T06:29:53;137.80;;;13.80;;
4274;SDS011;2151;50.988;11.068;2023-09-12T06:32:20;139.67;;;13.80;;
4274;SDS011;2151;50.988;11.068;2023-09-12T06:34:46;135.03;;;15.13;;
4274;SDS011;2151;50.988;11.068;2023-09-12T06:37:13;134.03;;;12.87;;
4274;SDS011;2151;50.988;11.068;2023-09-12T06:39:40;133.33;;;13.40;;
4274;SDS011;2151;50.988;11.068;2023-09-12T06:42:07;134.20;;;13.73;;
4274;SDS011;2151;50.988;11.068;2023-09-12T06:44:34;138.23;;;14.20;;
4274;SDS011;2151;50.988;11.068;2023-09-12T06:47:00;130.57;;;13.13;;
4274;SDS011;2151;50.988;11.068;2023-09-12T06:49:28;125.07;;;12.30;;
4274;SDS011;2151;50.988;11.068;2023-09-12T06:51:55;140.40;;;12.33;;
4274;SDS011;2151;50.988;11.068;2023-09-12T06:54:21;130.27;;;12.40;;
4274;SDS011;2151;50.988;11.068;2023-09-12T06:56:48;131.10;;;12.80;;
4274;SDS011;2151;50.988;11.068;2023-09-12T06:59:14;134.93;;;11.57;;
4274;SDS011;2151;50.988;11.068;2023-09-12T07:01:41;123.57;;;11.43;;
4274;SDS011;2151;50.988;11.068;2023-09-12T07:04:07;135.50;;;11.63;;
4274;SDS011;2151;50.988;11.068;2023-09-12T07:06:34;134.80;;;12.03;;
4274;SDS011;2151;50.988;11.068;2023-09-12T07:09:00;125.63;;;10.70;;
4274;SDS011;2151;50.988;11.068;2023-09-12T07:11:27;127.17;;;11.97;;
4274;SDS011;2151;50.988;11.068;2023-09-12T07:13:53;134.50;;;11.30;;
4274;SDS011;2151;50.988;11.068;2023-09-12T07:16:19;130.63;;;11.17;;
4274;SDS011;2151;50.988;11.068;2023-09-12T07:18:48;121.57;;;10.20;;
4274;SDS011;2151;50.988;11.068;2023-09-12T07:21:14;129.27;;;11.47;;
4274;SDS011;2151;50.988;11.068;2023-09-12T07:23:40;123.80;;;12.20;;
4274;SDS011;2151;50.988;11.068;2023-09-12T07:26:11;126.40;;;12.63;;
4274;SDS011;2151;50.988;11.068;2023-09-12T07:28:38;121.97;;;11.80;;
4274;SDS011;2151;50.988;11.068;2023-09-12T07:31:05;129.37;;;11.53;;
4274;SDS011;2151;50.988;11.068;2023-09-12T07:33:32;123.93;;;11.80;;
4274;SDS011;2151;50.988;11.068;2023-09-12T07:35:58;134.53;;;11.50;;
4274;SDS011;2151;50.988;11.068;2023-09-12T07:38:26;126.63;;;11.40;;
4274;SDS011;2151;50.988;11.068;2023-09-12T07:40:53;119.53;;;11.07;;
4274;SDS011;2151;50.988;11.068;2023-09-12T07:43:20;122.60;;;11.10;;
4274;SDS011;2151;50.988;11.068;2023-09-12T07:45:47;122.77;;;11.50;;
4274;SDS011;2151;50.988;11.068;2023-09-12T07:48:15;126.10;;;11.70;;
4274;SDS011;2151;50.988;11.068;2023-09-12T07:50:42;122.27;;;11.40;;
4274;SDS011;2151;50.988;11.068;2023-09-12T07:53:08;129.60;;;11.93;;
4274;SDS011;2151;50.988;11.068;2023-09-12T07:55:38;126.50;;;10.00;;
4274;SDS011;2151;50.988;11.068;2023-09-12T07:58:15;124.87;;;10.73;;
4274;SDS011;2151;50.988;11.068;2023-09-12T08:00:42;119.00;;;10.47;;
4274;SDS011;2151;50.988;11.068;2023-09-12T08:03:08;126.50;;;11.87;;
4274;SDS011;2151;50.988;11.068;2023-09-12T08:05:35;128.13;;;11.37;;
4274;SDS011;2151;50.988;11.068;2023-09-12T08:08:03;124.13;;;11.57;;
4274;SDS011;2151;50.988;11.068;2023-09-12T08:10:29;121.63;;;10.10;;
4274;SDS011;2151;50.988;11.068;2023-09-12T08:12:56;122.40;;;10.80;;
4274;SDS011;2151;50.988;11.068;2023-09-12T08:15:22;123.93;;;10.07;;
4274;SDS011;2151;50.988;11.068;2023-09-12T08:17:49;120.33;;;9.87;;
4274;SDS011;2151;50.988;11.068;2023-09-12T08:20:19;121.20;;;9.70;;
4274;SDS011;2151;50.988;11.068;2023-09-12T08:22:45;119.10;;;10.70;;
4274;SDS011;2151;50.988;11.068;2023-09-12T08:25:12;122.20;;;10.20;;
4274;SDS011;2151;50.988;11.068;2023-09-12T08:27:40;122.37;;;9.40;;
4274;SDS011;2151;50.988;11.068;2023-09-12T08:30:08;119.13;;;9.57;;
4274;SDS011;2151;50.988;11.068;2023-09-12T08:32:35;119.50;;;9.00;;
4274;SDS011;2151;50.988;11.068;2023-09-12T08:35:02;116.70;;;8.43;;
4274;SDS011;2151;50.988;11.068;2023-09-12T08:37:30;115.50;;;8.90;;
4274;SDS011;2151;50.988;11.068;2023-09-12T08:39:56;118.07;;;9.43;;
4274;SDS011;2151;50.988;11.068;2023-09-12T08:42:26;117.07;;;8.53;;
4274;SDS011;2151;50.988;11.068;2023-09-12T08:44:56;125.63;;;8.87;;
4274;SDS011;2151;50.988;11.068;2023-09-12T08:47:22;120.40;;;9.90;;
4274;SDS011;2151;50.988;11.068;2023-09-12T08:49:50;118.87;;;8.60;;
4274;SDS011;2151;50.988;11.068;2023-09-12T08:52:17;120.03;;;9.33;;
4274;SDS011;2151;50.988;11.068;2023-09-12T08:54:43;114.90;;;9.60;;
4274;SDS011;2151;50.988;11.068;2023-09-12T08:57:10;125.30;;;9.40;;
4274;SDS011;2151;50.988;11.068;2023-09-12T08:59:37;117.80;;;9.40;;
4274;SDS011;2151;50.988;11.068;2023-09-12T09:02:04;117.07;;;8.27;;
4274;SDS011;2151;50.988;11.068;2023-09-12T09:04:33;119.53;;;9.63;;
4274;SDS011;2151;50.988;11.068;2023-09-12T09:07:00;131.20;;;9.87;;
4274;SDS011;2151;50.988;11.068;2023-09-12T09:09:27;115.43;;;8.80;;
4274;SDS011;2151;50.988;11.068;2023-09-12T09:11:55;136.10;;;10.30;;
4274;SDS011;2151;50.988;11.068;2023-09-12T09:14:21;122.37;;;10.10;;
4274;SDS011;2151;50.988;11.068;2023-09-12T09:16:48;119.67;;;10.30;;
4274;SDS011;2151;50.988;11.068;2023-09-12T09:19:15;119.60;;;8.43;;
4274;SDS011;2151;50.988;11.068;2023-09-12T09:21:42;125.70;;;9.13;;
4274;SDS011;2151;50.988;11.068;2023-09-12T09:24:10;122.40;;;9.63;;
4274;SDS011;2151;50.988;11.068;2023-09-12T09:26:47;118.23;;;9.40;;
4274;SDS011;2151;50.988;11.068;2023-09-12T09:29:20;121.67;;;9.67;;
4274;SDS011;2151;50.988;11.068;2023-09-12T09:31:47;116.80;;;8.90;;
4274;SDS011;2151;50.988;11.068;2023-09-12T09:34:15;110.33;;;7.77;;
4274;SDS011;2151;50.988;11.068;2023-09-12T09:36:43;119.90;;;8.37;;
4274;SDS011;2151;50.988;11.068;2023-09-12T09:39:10;122.03;;;8.93;;
4274;SDS011;2151;50.988;11.068;2023-09-12T09:41:37;119.50;;;7.57;;
4274;SDS011;2151;50.988;11.068;2023-09-12T09:44:07;119.33;;;7.47;;
4274;SDS011;2151;50.988;11.068;2023-09-12T09:46:37;119.20;;;8.70;;
4274;SDS011;2151;50.988;11.068;2023-09-12T09:49:04;121.10;;;8.80;;
4274;SDS011;2151;50.988;11.068;2023-09-12T09:51:32;117.47;;;7.80;;
4274;SDS011;2151;50.988;11.068;2023-09-12T09:53:59;125.50;;;8.37;;
4274;SDS011;2151;50.988;11.068;2023-09-12T09:56:27;120.50;;;7.73;;
4274;SDS011;2151;50.988;11.068;2023-09-12T09:58:55;115.40;;;7.07;;
4274;SDS011;2151;50.988;11.068;2023-09-12T10:01:28;126.07;;;8.03;;
4274;SDS011;2151;50.988;11.068;2023-09-12T10:03:59;118.67;;;6.97;;
4274;SDS011;2151;50.988;11.068;2023-09-12T10:06:26;128.23;;;7.70;;
4274;SDS011;2151;50.988;11.068;2023-09-12T10:08:54;119.47;;;7.50;;
4274;SDS011;2151;50.988;11.068;2023-09-12T10:11:22;121.40;;;6.97;;
4274;SDS011;2151;50.988;11.068;2023-09-12T10:13:49;112.07;;;7.63;;
4274;SDS011;2151;50.988;11.068;2023-09-12T10:16:19;116.70;;;8.10;;
4274;SDS011;2151;50.988;11.068;2023-09-12T10:18:49;112.33;;;7.67;;
4274;SDS011;2151;50.988;11.068;2023-09-12T10:21:21;113.37;;;7.33;;
4274;SDS011;2151;50.988;11.068;2023-09-12T10:23:50;111.10;;;7.13;;
4274;SDS011;2151;50.988;11.068;2023-09-12T10:26:17;112.37;;;7.37;;
4274;SDS011;2151;50.988;11.068;2023-09-12T10:28:46;111.40;;;7.50;;
4274;SDS011;2151;50.988;11.068;2023-09-12T10:31:13;110.90;;;7.80;;
4274;SDS011;2151;50.988;11.068;2023-09-12T10:33:41;115.23;;;7.40;;
4274;SDS011;2151;50.988;11.068;2023-09-12T10:36:08;114.73;;;7.40;;
4274;SDS011;2151;50.988;11.068;2023-09-12T10:38:44;107.27;;;7.10;;
4274;SDS011;2151;50.988;11.068;2023-09-12T10:41:11;110.90;;;6.83;;
4274;SDS011;2151;50.988;11.068;2023-09-12T10:43:41;111.00;;;7.70;;
4274;SDS011;2151;50.988;11.068;2023-09-12T10:46:08;114.00;;;6.93;;
4274;SDS011;2151;50.988;11.068;2023-09-12T10:48:35;120.90;;;6.43;;
4274;SDS011;2151;50.988;11.068;2023-09-12T10:51:03;113.23;;;7.67;;
4274;SDS011;2151;50.988;11.068;2023-09-12T10:53:32;108.90;;;6.47;;
4274;SDS011;2151;50.988;11.068;2023-09-12T11:01:24;116.63;;;7.00;;
4274;SDS011;2151;50.988;11.068;2023-09-12T11:03:51;115.47;;;7.00;;
4274;SDS011;2151;50.988;11.068;2023-09-12T11:06:30;116.70;;;7.40;;
4274;SDS011;2151;50.988;11.068;2023-09-12T11:09:16;113.70;;;6.57;;
4274;SDS011;2151;50.988;11.068;2023-09-12T11:11:46;107.77;;;7.03;;
4274;SDS011;2151;50.988;11.068;2023-09-12T11:14:13;115.93;;;6.80;;
4274;SDS011;2151;50.988;11.068;2023-09-12T11:16:39;111.93;;;7.10;;
4274;SDS011;2151;50.988;11.068;2023-09-12T11:21:38;107.63;;;6.60;;
4274;SDS011;2151;50.988;11.068;2023-09-12T11:24:05;116.13;;;7.60;;
4274;SDS011;2151;50.988;11.068;2023-09-12T11:26:32;105.73;;;7.20;;
4274;SDS011;2151;50.988;11.068;2023-09-12T11:29:09;120.43;;;7.17;;
4274;SDS011;2151;50.988;11.068;2023-09-12T11:31:36;112.33;;;6.70;;
4274;SDS011;2151;50.988;11.068;2023-09-12T11:34:08;108.07;;;6.70;;
4274;SDS011;2151;50.988;11.068;2023-09-12T11:36:41;103.43;;;6.10;;
4274;SDS011;2151;50.988;11.068;2023-09-12T11:39:52;106.90;;;6.77;;
4274;SDS011;2151;50.988;11.068;2023-09-12T11:41:58;111.63;;;6.90;;
4274;SDS011;2151;50.988;11.068;2023-09-12T11:44:25;123.90;;;7.40;;
4274;SDS011;2151;50.988;11.068;2023-09-12T11:46:53;112.77;;;7.30;;
4274;SDS011;2151;50.988;11.068;2023-09-12T11:49:20;114.77;;;6.70;;
4274;SDS011;2151;50.988;11.068;2023-09-12T11:51:47;111.87;;;7.00;;
4274;SDS011;2151;50.988;11.068;2023-09-12T11:54:14;109.17;;;6.30;;
4274;SDS011;2151;50.988;11.068;2023-09-12T11:56:40;111.83;;;6.67;;
4274;SDS011;2151;50.988;11.068;2023-09-12T11:59:07;106.07;;;6.40;;
4274;SDS011;2151;50.988;11.068;2023-09-12T12:01:36;106.27;;;6.50;;
4274;SDS011;2151;50.988;11.068;2023-09-12T12:04:02;112.07;;;6.03;;
4274;SDS011;2151;50.988;11.068;2023-09-12T12:06:30;115.67;;;7.03;;
4274;SDS011;2151;50.988;11.068;2023-09-12T12:08:56;108.77;;;6.63;;
4274;SDS011;2151;50.988;11.068;2023-09-12T12:11:27;112.83;;;7.50;;
4274;SDS011;2151;50.988;11.068;2023-09-12T12:13:54;112.27;;;6.60;;
4274;SDS011;2151;50.988;11.068;2023-09-12T12:16:20;106.93;;;7.10;;
4274;SDS011;2151;50.988;11.068;2023-09-12T12:18:49;115.57;;;7.80;;
4274;SDS011;2151;50.988;11.068;2023-09-12T12:21:20;107.47;;;6.53;;
4274;SDS011;2151;50.988;11.068;2023-09-12T12:23:47;112.40;;;6.43;;
4274;SDS011;2151;50.988;11.068;2023-09-12T12:26:24;112.30;;;6.73;;
4274;SDS011;2151;50.988;11.068;2023-09-12T12:28:50;104.93;;;6.50;;
4274;SDS011;2151;50.988;11.068;2023-09-12T12:31:17;116.73;;;7.13;;
4274;SDS011;2151;50.988;11.068;2023-09-12T12:33:49;108.90;;;7.00;;
4274;SDS011;2151;50.988;11.068;2023-09-12T12:36:42;103.03;;;6.10;;
4274;SDS011;2151;50.988;11.068;2023-09-12T12:39:21;114.90;;;7.30;;
4274;SDS011;2151;50.988;11.068;2023-09-12T12:41:48;105.37;;;6.03;;
4274;SDS011;2151;50.988;11.068;2023-09-12T12:44:17;111.90;;;6.90;;
4274;SDS011;2151;50.988;11.068;2023-09-12T12:46:53;103.83;;;7.23;;
4274;SDS011;2151;50.988;11.068;2023-09-12T12:49:20;111.23;;;6.70;;
4274;SDS011;2151;50.988;11.068;2023-09-12T12:51:47;112.33;;;7.13;;
4274;SDS011;2151;50.988;11.068;2023-09-12T12:54:15;110.33;;;6.27;;
4274;SDS011;2151;50.988;11.068;2023-09-12T12:56:42;107.13;;;6.30;;
4274;SDS011;2151;50.988;11.068;2023-09-12T12:59:10;108.70;;;6.43;;
4274;SDS011;2151;50.988;11.068;2023-09-12T13:01:37;112.80;;;6.90;;
4274;SDS011;2151;50.988;11.068;2023-09-12T13:04:04;106.40;;;5.63;;
4274;SDS011;2151;50.988;11.068;2023-09-12T13:06:31;110.97;;;6.40;;
4274;SDS011;2151;50.988;11.068;2023-09-12T13:09:02;115.93;;;6.93;;
4274;SDS011;2151;50.988;11.068;2023-09-12T13:11:31;104.17;;;6.20;;
4274;SDS011;2151;50.988;11.068;2023-09-12T13:14:01;118.50;;;6.07;;
4274;SDS011;2151;50.988;11.068;2023-09-12T13:16:29;110.13;;;6.30;;
4274;SDS011;2151;50.988;11.068;2023-09-12T13:18:56;107.27;;;6.13;;
4274;SDS011;2151;50.988;11.068;2023-09-12T13:21:22;112.53;;;6.63;;
4274;SDS011;2151;50.988;11.068;2023-09-12T13:23:49;106.43;;;5.97;;
4274;SDS011;2151;50.988;11.068;2023-09-12T13:26:15;109.73;;;5.93;;
4274;SDS011;2151;50.988;11.068;2023-09-12T13:28:42;107.60;;;6.00;;
4274;SDS011;2151;50.988;11.068;2023-09-12T13:31:08;108.13;;;6.10;;
4274;SDS011;2151;50.988;11.068;2023-09-12T13:33:35;109.33;;;5.80;;
4274;SDS011;2151;50.988;11.068;2023-09-12T13:36:01;103.97;;;6.03;;
4274;SDS011;2151;50.988;11.068;2023-09-12T13:38:28;106.30;;;6.90;;
4274;SDS011;2151;50.988;11.068;2023-09-12T13:40:54;110.07;;;6.40;;
4274;SDS011;2151;50.988;11.068;2023-09-12T13:43:21;106.20;;;7.10;;
4274;SDS011;2151;50.988;11.068;2023-09-12T13:45:49;108.90;;;7.23;;
4274;SDS011;2151;50.988;11.068;2023-09-12T13:48:15;111.10;;;6.17;;
4274;SDS011;2151;50.988;11.068;2023-09-12T13:50:42;112.70;;;6.13;;
4274;SDS011;2151;50.988;11.068;2023-09-12T13:53:11;110.37;;;7.10;;
4274;SDS011;2151;50.988;11.068;2023-09-12T13:55:37;117.50;;;6.82;;
4274;SDS011;2151;50.988;11.068;2023-09-12T13:58:24;112.17;;;6.47;;
4274;SDS011;2151;50.988;11.068;2023-09-12T14:00:55;110.50;;;6.80;;
4274;SDS011;2151;50.988;11.068;2023-09-12T14:03:22;115.30;;;7.30;;
4274;SDS011;2151;50.988;11.068;2023-09-12T14:05:49;110.10;;;6.60;;
4274;SDS011;2151;50.988;11.068;2023-09-12T14:08:17;110.47;;;7.80;;
4274;SDS011;2151;50.988;11.068;2023-09-12T14:10:44;111.20;;;6.40;;
4274;SDS011;2151;50.988;11.068;2023-09-12T14:13:11;111.10;;;6.83;;
4274;SDS011;2151;50.988;11.068;2023-09-12T14:15:41;117.30;;;6.97;;
4274;SDS011;2151;50.988;11.068;2023-09-12T14:18:09;121.97;;;6.90;;
4274;SDS011;2151;50.988;11.068;2023-09-12T14:20:36;106.57;;;6.13;;
4274;SDS011;2151;50.988;11.068;2023-09-12T14:23:03;117.77;;;6.40;;
4274;SDS011;2151;50.988;11.068;2023-09-12T14:25:31;111.03;;;7.57;;
4274;SDS011;2151;50.988;11.068;2023-09-12T14:27:58;112.10;;;6.47;;
4274;SDS011;2151;50.988;11.068;2023-09-12T14:30:25;113.23;;;7.23;;
4274;SDS011;2151;50.988;11.068;2023-09-12T14:33:00;102.10;;;5.93;;
4274;SDS011;2151;50.988;11.068;2023-09-12T14:35:27;109.37;;;6.57;;
4274;SDS011;2151;50.988;11.068;2023-09-12T14:37:53;127.23;;;6.67;;
4274;SDS011;2151;50.988;11.068;2023-09-12T14:40:20;110.57;;;6.77;;